createdAt,value
2019-05-25T00:02:16.690Z,95.80
2019-05-25T00:04:45.570Z,94.80
2019-05-25T00:07:14.331Z,95.10
2019-05-25T00:09:43.062Z,95.70
2019-05-25T00:12:12.165Z,95.20
2019-05-25T00:14:41.908Z,96.20
2019-05-25T00:17:10.955Z,94.50
2019-05-25T00:19:40.076Z,95.40
2019-05-25T00:22:08.835Z,96.00
2019-05-25T00:24:37.613Z,95.00
2019-05-25T00:27:06.340Z,95.90
2019-05-25T00:29:35.421Z,95.20
2019-05-25T00:32:04.194Z,94.90
2019-05-25T00:34:33.185Z,95.70
2019-05-25T00:37:02.324Z,95.30
2019-05-25T00:39:31.046Z,95.60
2019-05-25T00:41:59.897Z,94.70
2019-05-25T00:44:28.657Z,95.40
2019-05-25T00:46:57.391Z,96.10
2019-05-25T00:49:26.449Z,95.60
2019-05-25T00:51:55.548Z,96.30
2019-05-25T00:54:27.906Z,96.50
2019-05-25T00:56:55.063Z,96.40
2019-05-25T00:59:23.784Z,96.90
2019-05-25T01:01:52.513Z,97.50
2019-05-25T01:04:21.276Z,97.50
2019-05-25T01:06:49.997Z,96.90
2019-05-25T01:09:19.340Z,97.80
2019-05-25T01:11:48.071Z,97.00
2019-05-25T01:14:16.907Z,97.10
2019-05-25T01:16:46.031Z,97.90
2019-05-25T01:19:15.216Z,96.70
2019-05-25T01:21:43.930Z,97.50
2019-05-25T01:24:13.308Z,97.60
2019-05-25T01:26:42.035Z,97.70
2019-05-25T01:29:10.780Z,98.20
2019-05-25T01:31:39.890Z,97.90
2019-05-25T01:34:08.964Z,96.70
2019-05-25T01:36:38.051Z,98.00
2019-05-25T01:39:07.976Z,98.00
2019-05-25T01:41:36.848Z,97.50
2019-05-25T01:44:05.784Z,97.90
2019-05-25T01:46:34.861Z,97.40
2019-05-25T01:49:03.699Z,98.20
2019-05-25T01:51:32.731Z,97.70
2019-05-25T01:54:01.459Z,97.90
2019-05-25T01:56:30.195Z,97.90
2019-05-25T01:58:59.308Z,98.20
2019-05-25T02:01:28.423Z,98.00
2019-05-25T02:03:57.503Z,97.60
2019-05-25T02:06:26.592Z,98.20
2019-05-25T02:08:55.356Z,97.70
2019-05-25T02:11:24.199Z,98.30
2019-05-25T02:13:53.995Z,98.50
2019-05-25T02:16:23.092Z,98.60
2019-05-25T02:18:51.846Z,98.50
2019-05-25T02:21:20.578Z,98.90
2019-05-25T02:23:49.765Z,98.50
2019-05-25T02:26:18.501Z,98.60
2019-05-25T02:28:47.267Z,98.40
2019-05-25T02:31:16.333Z,99.00
2019-05-25T02:33:45.045Z,99.00
2019-05-25T02:36:14.149Z,97.90
2019-05-25T02:38:42.878Z,97.90
2019-05-25T02:41:12.000Z,98.80
2019-05-25T02:43:40.806Z,99.10
2019-05-25T02:46:09.905Z,98.80
2019-05-25T02:48:38.985Z,98.80
2019-05-25T02:51:08.096Z,98.90
2019-05-25T02:53:37.395Z,97.60
2019-05-25T02:56:06.501Z,97.70
2019-05-25T02:58:35.234Z,98.00
2019-05-25T03:01:04.517Z,98.70
2019-05-25T03:03:33.685Z,99.20
2019-05-25T03:06:03.524Z,98.60
2019-05-25T03:08:32.997Z,98.30
2019-05-25T03:11:02.071Z,99.20
2019-05-25T03:13:32.909Z,98.30
2019-05-25T03:16:02.390Z,98.20
2019-05-25T03:18:31.163Z,98.80
2019-05-25T03:21:00.210Z,97.90
2019-05-25T03:23:29.307Z,98.20
2019-05-25T03:25:58.143Z,98.90
2019-05-25T03:28:27.189Z,98.20
2019-05-25T03:30:56.290Z,98.10
2019-05-25T03:33:25.220Z,98.00
2019-05-25T03:35:54.278Z,98.00
2019-05-25T03:38:23.017Z,98.60
2019-05-25T03:40:51.761Z,99.20
2019-05-25T03:43:20.493Z,98.00
2019-05-25T03:45:49.214Z,97.70
2019-05-25T03:48:18.319Z,98.70
2019-05-25T03:50:47.146Z,98.90
2019-05-25T03:53:15.920Z,99.00
2019-05-25T03:55:44.701Z,98.50
2019-05-25T03:58:13.796Z,98.50
2019-05-25T04:00:42.517Z,99.40
2019-05-25T04:03:11.566Z,99.60
2019-05-25T04:05:40.350Z,99.60
2019-05-25T04:08:09.479Z,99.40
2019-05-25T04:10:38.945Z,98.10
2019-05-25T04:13:08.261Z,98.40
2019-05-25T04:15:37.509Z,97.90
2019-05-25T04:18:06.571Z,98.60
2019-05-25T04:20:35.982Z,98.10
2019-05-25T04:23:04.687Z,98.80
2019-05-25T04:25:33.473Z,99.10
2019-05-25T04:28:02.560Z,99.20
2019-05-25T04:30:31.335Z,99.40
2019-05-25T04:33:00.080Z,99.00
2019-05-25T04:35:28.808Z,97.80
2019-05-25T04:37:57.798Z,98.00
2019-05-25T04:40:26.892Z,97.80
2019-05-25T04:42:55.651Z,98.00
2019-05-25T04:45:24.503Z,97.80
2019-05-25T04:47:53.579Z,97.90
2019-05-25T04:50:22.663Z,98.20
2019-05-25T04:52:51.371Z,98.50
2019-05-25T04:55:20.557Z,98.10
2019-05-25T04:57:49.645Z,98.20
2019-05-25T05:00:18.755Z,97.60
2019-05-25T05:02:47.506Z,97.70
2019-05-25T05:05:16.841Z,97.20
2019-05-25T05:07:45.936Z,97.10
2019-05-25T05:10:14.879Z,96.90
2019-05-25T05:12:43.625Z,97.00
2019-05-25T05:15:12.817Z,98.10
2019-05-25T05:17:42.029Z,97.80
2019-05-25T05:20:10.834Z,96.00
2019-05-25T05:22:39.892Z,95.90
2019-05-25T05:25:11.552Z,96.30
2019-05-25T05:27:41.078Z,96.60
2019-05-25T05:30:11.281Z,96.50
2019-05-25T05:32:40.376Z,97.10
2019-05-25T05:35:10.010Z,96.90
2019-05-25T05:37:41.333Z,96.40
2019-05-25T05:40:10.173Z,96.20
2019-05-25T05:42:41.282Z,95.90
2019-05-25T05:45:10.764Z,96.20
2019-05-25T05:47:41.625Z,94.90
2019-05-25T05:50:11.233Z,95.70
2019-05-25T05:52:40.360Z,95.20
2019-05-25T05:55:11.970Z,95.10
2019-05-25T05:57:41.068Z,94.70
2019-05-25T06:00:12.552Z,95.00
2019-05-25T06:02:41.650Z,95.10
2019-05-25T06:05:10.825Z,94.90
2019-05-25T06:07:39.635Z,95.20
2019-05-25T06:10:08.701Z,94.10
2019-05-25T06:12:37.822Z,93.70
2019-05-25T06:15:09.588Z,93.30
2019-05-25T06:17:38.149Z,92.90
2019-05-25T06:20:08.971Z,92.20
2019-05-25T06:22:38.079Z,92.60
2019-05-25T06:25:08.770Z,92.20
2019-05-25T06:27:38.017Z,92.40
2019-05-25T06:30:09.274Z,92.20
2019-05-25T06:32:38.123Z,93.20
2019-05-25T06:35:08.977Z,91.40
2019-05-25T06:37:37.713Z,91.70
2019-05-25T06:40:08.617Z,90.20
2019-05-25T06:42:37.837Z,89.30
2019-05-25T06:45:07.831Z,85.40
2019-05-25T06:47:37.051Z,86.50
2019-05-25T06:50:10.763Z,82.30
2019-05-25T06:52:39.857Z,84.20
2019-05-25T06:55:09.847Z,82.30
2019-05-25T06:57:43.542Z,79.80
2019-05-25T07:00:10.711Z,77.80
2019-05-25T07:02:39.473Z,75.60
2019-05-25T07:05:09.508Z,79.50
2019-05-25T07:07:38.376Z,78.80
2019-05-25T07:10:08.874Z,73.30
2019-05-25T07:12:38.060Z,76.00
2019-05-25T07:15:08.975Z,75.90
2019-05-25T07:17:37.714Z,76.30
2019-05-25T07:20:08.278Z,77.60
2019-05-25T07:22:37.390Z,80.30
2019-05-25T07:25:07.103Z,79.80
2019-05-25T07:27:36.594Z,77.00
2019-05-25T07:30:07.133Z,74.50
2019-05-25T07:32:36.542Z,76.50
2019-05-25T07:35:07.041Z,76.80
2019-05-25T07:37:36.185Z,76.20
2019-05-25T07:40:09.821Z,77.40
2019-05-25T07:42:38.869Z,80.90
2019-05-25T07:45:09.192Z,77.00
2019-05-25T07:47:37.945Z,75.00
2019-05-25T07:50:08.654Z,74.30
2019-05-25T07:52:37.385Z,75.50
2019-05-25T07:55:08.047Z,70.20
2019-05-25T07:57:36.792Z,72.30
2019-05-25T08:00:07.484Z,68.60
2019-05-25T08:02:36.273Z,70.60
2019-05-25T08:05:08.822Z,68.10
2019-05-25T08:07:37.939Z,65.10
2019-05-25T08:10:07.663Z,66.20
2019-05-25T08:12:36.772Z,67.00
2019-05-25T08:15:06.876Z,69.50
2019-05-25T08:17:35.935Z,64.80
2019-05-25T08:20:07.117Z,67.50
2019-05-25T08:22:35.954Z,64.30
2019-05-25T08:25:07.866Z,66.50
2019-05-25T08:27:36.585Z,68.80
2019-05-25T08:30:09.109Z,69.00
2019-05-25T08:32:37.827Z,72.90
2019-05-25T08:35:08.119Z,74.60
2019-05-25T08:37:36.895Z,74.70
2019-05-25T08:40:07.553Z,76.20
2019-05-25T08:42:36.763Z,75.80
2019-05-25T08:45:08.976Z,76.80
2019-05-25T08:47:37.738Z,77.00
2019-05-25T08:50:07.617Z,75.30
2019-05-25T08:52:36.717Z,76.60
2019-05-25T08:55:08.519Z,76.40
2019-05-25T08:57:37.264Z,75.90
2019-05-25T09:00:07.388Z,78.80
2019-05-25T09:02:36.481Z,81.10
2019-05-25T09:05:08.585Z,82.20
2019-05-25T09:07:37.657Z,82.50
2019-05-25T09:10:07.566Z,82.80
2019-05-25T09:12:36.548Z,82.30
2019-05-25T09:15:07.181Z,84.90
2019-05-25T09:17:36.299Z,84.30
2019-05-25T09:20:08.723Z,84.30
2019-05-25T09:22:37.453Z,85.90
2019-05-25T09:25:07.987Z,86.30
2019-05-25T09:27:37.073Z,86.00
2019-05-25T09:30:08.740Z,86.80
2019-05-25T09:32:37.851Z,87.50
2019-05-25T09:35:10.812Z,88.00
2019-05-25T09:37:39.553Z,88.20
2019-05-25T09:40:09.283Z,86.50
2019-05-25T09:42:38.942Z,86.50
2019-05-25T09:45:13.814Z,86.60
2019-05-25T09:47:40.450Z,87.40
2019-05-25T09:50:11.170Z,86.60
2019-05-25T09:52:39.926Z,88.10
2019-05-25T09:55:10.030Z,88.00
2019-05-25T09:57:41.648Z,88.70
2019-05-25T10:00:11.798Z,88.70
2019-05-25T10:02:40.800Z,89.20
2019-05-25T10:05:10.557Z,88.60
2019-05-25T10:07:39.286Z,89.50
2019-05-25T10:10:09.257Z,89.40
2019-05-25T10:12:37.957Z,88.50
2019-05-25T10:15:08.138Z,89.20
2019-05-25T10:17:37.276Z,89.50
2019-05-25T10:20:06.741Z,88.80
2019-05-25T10:22:35.854Z,88.80
2019-05-25T10:25:07.513Z,88.40
2019-05-25T10:27:36.218Z,88.10
2019-05-25T10:30:07.114Z,88.20
2019-05-25T10:32:35.844Z,86.70
2019-05-25T10:35:07.120Z,88.10
2019-05-25T10:37:36.154Z,86.90
2019-05-25T10:40:06.963Z,86.70
2019-05-25T10:42:35.789Z,87.20
2019-05-25T10:45:07.463Z,86.40
2019-05-25T10:47:36.527Z,85.60
2019-05-25T10:50:09.805Z,85.50
2019-05-25T10:52:38.057Z,85.80
2019-05-25T10:55:09.366Z,85.50
2019-05-25T10:57:39.062Z,85.40
2019-05-25T11:00:10.579Z,86.80
2019-05-25T11:02:39.601Z,87.30
2019-05-25T11:05:09.634Z,87.50
2019-05-25T11:07:38.720Z,87.50
2019-05-25T11:10:08.757Z,87.80
2019-05-25T11:12:37.559Z,87.90
2019-05-25T11:15:08.071Z,87.10
2019-05-25T11:17:37.177Z,88.20
2019-05-25T11:20:09.154Z,87.90
2019-05-25T11:22:37.872Z,87.80
2019-05-25T11:25:09.169Z,88.50
2019-05-25T11:27:37.939Z,88.90
2019-05-25T11:30:09.821Z,88.10
2019-05-25T11:32:38.532Z,88.10
2019-05-25T11:35:08.679Z,88.60
2019-05-25T11:37:37.374Z,87.70
2019-05-25T11:40:08.081Z,86.30
2019-05-25T11:42:37.130Z,85.80
2019-05-25T11:45:07.561Z,85.60
2019-05-25T11:47:36.309Z,85.20
2019-05-25T11:50:07.136Z,84.10
2019-05-25T11:52:35.843Z,84.80
2019-05-25T11:55:07.510Z,84.40
2019-05-25T11:57:36.634Z,84.40
2019-05-25T12:00:24.356Z,82.70
2019-05-25T12:02:44.974Z,83.50
2019-05-25T12:05:14.263Z,84.10
2019-05-25T12:07:44.975Z,84.00
2019-05-25T12:10:15.503Z,82.70
2019-05-25T12:12:44.230Z,83.00
2019-05-25T12:15:13.451Z,83.90
2019-05-25T12:17:42.525Z,83.50
2019-05-25T12:20:12.326Z,84.70
2019-05-25T12:22:41.043Z,85.00
2019-05-25T12:25:10.647Z,85.00
2019-05-25T12:27:39.349Z,86.60
2019-05-25T12:30:08.901Z,86.10
2019-05-25T12:32:38.008Z,84.90
2019-05-25T12:35:07.424Z,84.70
2019-05-25T12:37:36.739Z,84.50
2019-05-25T12:40:07.354Z,83.80
2019-05-25T12:42:36.537Z,86.00
2019-05-25T12:45:07.006Z,85.40
2019-05-25T12:47:35.754Z,85.60
2019-05-25T12:50:06.671Z,85.20
2019-05-25T12:52:35.717Z,84.50
2019-05-25T12:55:06.295Z,85.00
2019-05-25T12:57:35.439Z,85.20
2019-05-25T13:00:15.396Z,85.00
2019-05-25T13:02:37.626Z,85.90
2019-05-25T13:05:06.822Z,86.00
2019-05-25T13:07:35.538Z,87.40
2019-05-25T13:10:09.109Z,87.20
2019-05-25T13:12:37.889Z,87.60
2019-05-25T13:15:08.111Z,88.00
2019-05-25T13:17:36.847Z,86.50
2019-05-25T13:20:08.465Z,85.90
2019-05-25T13:22:37.586Z,85.90
2019-05-25T13:25:07.613Z,85.60
2019-05-25T13:27:36.677Z,85.20
2019-05-25T13:30:09.048Z,87.70
2019-05-25T13:32:37.786Z,86.90
2019-05-25T13:35:08.633Z,87.10
2019-05-25T13:37:38.149Z,87.70
2019-05-25T13:40:08.711Z,88.60
2019-05-25T13:42:37.794Z,88.80
2019-05-25T13:45:08.259Z,88.70
2019-05-25T13:47:36.970Z,87.80
2019-05-25T13:50:10.223Z,86.60
2019-05-25T13:52:38.506Z,87.80
2019-05-25T13:55:08.020Z,88.50
2019-05-25T13:57:37.110Z,88.90
2019-05-25T14:00:07.763Z,89.90
2019-05-25T14:02:36.843Z,90.30
2019-05-25T14:05:08.766Z,90.10
2019-05-25T14:07:37.894Z,89.90
2019-05-25T14:10:10.062Z,90.50
2019-05-25T14:12:38.843Z,91.10
2019-05-25T14:15:08.620Z,91.60
2019-05-25T14:17:37.803Z,92.20
2019-05-25T14:20:09.210Z,92.30
2019-05-25T14:22:38.296Z,92.70
2019-05-25T14:25:08.129Z,93.50
2019-05-25T14:27:36.891Z,93.30
2019-05-25T14:30:06.982Z,93.60
2019-05-25T14:32:35.666Z,93.70
2019-05-25T14:35:05.323Z,94.60
2019-05-25T14:37:34.411Z,95.10
2019-05-25T14:40:03.951Z,95.00
2019-05-25T14:42:33.170Z,95.10
2019-05-25T14:45:02.319Z,94.40
2019-05-25T14:47:31.050Z,95.00
2019-05-25T14:50:00.212Z,95.10
2019-05-25T14:52:29.306Z,95.90
2019-05-25T14:54:59.533Z,96.00
2019-05-25T14:57:28.388Z,96.70
2019-05-25T14:59:57.136Z,96.10
2019-05-25T15:02:26.315Z,96.10
2019-05-25T15:04:55.144Z,96.20
2019-05-25T15:07:23.957Z,95.80
2019-05-25T15:09:53.088Z,96.70
2019-05-25T15:12:22.175Z,96.30
2019-05-25T15:14:53.344Z,96.30
2019-05-25T15:17:22.431Z,96.20
2019-05-25T15:19:51.508Z,96.30
2019-05-25T15:22:20.613Z,96.80
2019-05-25T15:24:49.926Z,96.60
2019-05-25T15:27:18.670Z,97.00
2019-05-25T15:29:47.789Z,96.60
2019-05-25T15:32:20.335Z,96.80
2019-05-25T15:34:47.341Z,95.70
2019-05-25T15:37:16.417Z,96.70
2019-05-25T15:39:45.523Z,96.50
2019-05-25T15:42:14.607Z,97.20
2019-05-25T15:44:43.417Z,96.90
2019-05-25T15:47:12.163Z,97.50
2019-05-25T15:49:40.932Z,97.70
2019-05-25T15:52:09.687Z,97.60
2019-05-25T15:54:38.534Z,98.00
2019-05-25T15:57:07.271Z,98.80
2019-05-25T15:59:36.349Z,98.80
2019-05-25T16:02:06.359Z,98.30
2019-05-25T16:04:35.750Z,99.20
2019-05-25T16:07:05.051Z,99.90
2019-05-25T16:09:33.767Z,99.90
2019-05-25T16:12:02.838Z,99.90
2019-05-25T16:14:32.048Z,99.90
2019-05-25T16:17:00.772Z,99.90
2019-05-25T16:19:29.429Z,99.90
2019-05-25T16:21:58.162Z,99.60
2019-05-25T16:24:27.307Z,99.60
2019-05-25T16:26:56.430Z,99.90
2019-05-25T16:29:25.511Z,99.90
2019-05-25T16:31:54.253Z,99.90
2019-05-25T16:34:23.611Z,99.90
2019-05-25T16:36:52.395Z,99.90
2019-05-25T16:39:21.477Z,99.90
2019-05-25T16:41:50.563Z,99.90
2019-05-25T16:44:19.342Z,99.90
2019-05-25T16:46:48.361Z,99.90
2019-05-25T16:49:17.090Z,99.90
2019-05-25T16:51:45.869Z,99.90
2019-05-25T16:54:15.243Z,99.90
2019-05-25T16:56:43.978Z,99.90
2019-05-25T16:59:13.131Z,99.90
2019-05-25T17:01:48.289Z,99.90
2019-05-25T17:04:12.315Z,99.90
2019-05-25T17:06:41.446Z,99.90
2019-05-25T17:09:10.553Z,99.90
2019-05-25T17:11:40.490Z,99.90
2019-05-25T17:14:09.299Z,99.90
2019-05-25T17:16:38.035Z,99.90
2019-05-25T17:19:07.149Z,99.90
2019-05-25T17:21:36.247Z,99.90
2019-05-25T17:24:05.354Z,99.90
2019-05-25T17:26:35.680Z,99.90
2019-05-25T17:29:04.955Z,99.90
2019-05-25T17:31:34.087Z,99.90
2019-05-25T17:34:05.382Z,99.90
2019-05-25T17:36:34.495Z,99.90
2019-05-25T17:39:04.213Z,99.90
2019-05-25T17:41:32.953Z,99.90
2019-05-25T17:44:03.925Z,99.90
2019-05-25T17:46:33.017Z,99.90
2019-05-25T17:49:01.812Z,99.90
2019-05-25T17:51:30.572Z,99.90
2019-05-25T17:54:00.550Z,99.90
2019-05-25T17:56:29.286Z,99.90
2019-05-25T17:58:58.429Z,99.90
2019-05-25T18:01:27.536Z,99.90
2019-05-25T18:04:06.548Z,99.90
2019-05-25T18:06:26.684Z,99.90
2019-05-25T18:08:55.412Z,99.90
2019-05-25T18:11:24.519Z,99.90
2019-05-25T18:13:54.929Z,99.90
2019-05-25T18:16:24.028Z,99.90
2019-05-25T18:18:52.784Z,99.90
2019-05-25T18:21:22.309Z,99.90
2019-05-25T18:23:51.652Z,99.90
2019-05-25T18:26:20.403Z,99.90
2019-05-25T18:31:22.917Z,99.90
2019-05-25T18:33:52.098Z,99.90
2019-05-25T18:36:20.913Z,99.90
2019-05-25T18:38:49.998Z,99.90
2019-05-25T18:41:19.106Z,99.90
2019-05-25T18:43:47.923Z,99.90
2019-05-25T18:46:16.976Z,99.90
2019-05-25T18:48:45.892Z,99.90
2019-05-25T18:51:14.862Z,99.90
2019-05-25T18:53:44.182Z,99.90
2019-05-25T18:56:12.921Z,99.90
2019-05-25T18:58:41.711Z,99.90
2019-05-25T19:01:10.969Z,99.90
2019-05-25T19:03:46.187Z,99.90
2019-05-25T19:06:15.265Z,99.90
2019-05-25T19:08:44.037Z,99.90
2019-05-25T19:11:13.063Z,99.90
2019-05-25T19:13:41.843Z,99.90
2019-05-25T19:16:10.963Z,99.90
2019-05-25T19:18:40.062Z,99.90
2019-05-25T19:21:08.773Z,99.90
2019-05-25T19:23:37.532Z,99.90
2019-05-25T19:26:06.282Z,99.90
2019-05-25T19:28:35.306Z,99.90
2019-05-25T19:31:07.311Z,99.90
2019-05-25T19:33:36.578Z,99.90
2019-05-25T19:36:05.295Z,99.90
2019-05-25T19:38:34.351Z,99.90
2019-05-25T19:41:03.095Z,99.90
2019-05-25T19:43:31.945Z,99.90
2019-05-25T19:46:01.035Z,99.90
2019-05-25T19:48:30.123Z,99.90
2019-05-25T19:50:58.844Z,99.90
2019-05-25T19:53:27.625Z,99.90
2019-05-25T19:55:56.729Z,99.90
2019-05-25T19:58:25.807Z,99.90
2019-05-25T20:00:54.883Z,99.90
2019-05-25T20:03:24.092Z,99.90
2019-05-25T20:05:53.091Z,99.90
2019-05-25T20:08:22.042Z,99.90
2019-05-25T20:10:54.754Z,99.90
2019-05-25T20:13:23.634Z,99.90
2019-05-25T20:15:52.861Z,99.90
2019-05-25T20:18:21.580Z,99.90
2019-05-25T20:20:50.992Z,99.90
2019-05-25T20:23:20.200Z,99.90
2019-05-25T20:25:49.356Z,99.90
2019-05-25T20:28:18.057Z,99.90
2019-05-25T20:33:27.660Z,99.90
2019-05-25T20:35:52.045Z,99.90
2019-05-25T20:38:21.075Z,99.90
2019-05-25T20:40:49.828Z,99.90
2019-05-25T20:43:18.962Z,99.90
2019-05-25T20:45:48.475Z,99.90
2019-05-25T20:48:17.911Z,99.90
2019-05-25T20:50:46.595Z,99.90
2019-05-25T20:53:15.391Z,99.90
2019-05-25T20:55:44.855Z,99.90
2019-05-25T20:58:13.576Z,99.90
2019-05-25T21:00:42.536Z,99.90
2019-05-25T21:03:12.159Z,99.90
2019-05-25T21:05:50.499Z,99.90
2019-05-25T21:08:12.150Z,99.90
2019-05-25T21:11:00.462Z,99.90
2019-05-25T21:13:29.630Z,99.90
2019-05-25T21:15:58.380Z,99.90
2019-05-25T21:18:27.504Z,99.90
2019-05-25T21:20:56.612Z,99.90
2019-05-25T21:23:26.824Z,99.90
2019-05-25T21:25:55.926Z,99.90
2019-05-25T21:28:24.921Z,99.90
2019-05-25T21:30:53.751Z,99.90
2019-05-25T21:33:22.689Z,99.90
2019-05-25T21:36:06.813Z,99.90
2019-05-25T21:38:22.635Z,99.90
2019-05-25T21:40:51.861Z,99.90
2019-05-25T21:43:33.972Z,99.90
2019-05-25T21:46:03.175Z,99.90
2019-05-25T21:48:31.861Z,99.90
2019-05-25T21:51:00.619Z,99.90
2019-05-25T21:53:31.881Z,99.90
2019-05-25T21:56:00.987Z,99.90
2019-05-25T21:58:29.693Z,99.90
2019-05-25T22:00:58.847Z,99.90
2019-05-25T22:03:27.579Z,99.90
2019-05-25T22:05:56.620Z,99.90
2019-05-25T22:08:25.708Z,99.90
2019-05-25T22:10:54.450Z,99.90
2019-05-25T22:13:28.369Z,99.90
2019-05-25T22:15:53.664Z,99.90
2019-05-25T22:18:22.465Z,99.90
2019-05-25T22:20:51.201Z,99.90
2019-05-25T22:23:20.308Z,99.90
2019-05-25T22:25:49.022Z,99.90
2019-05-25T22:28:18.097Z,99.90
2019-05-25T22:30:47.184Z,99.90
2019-05-25T22:33:15.923Z,99.90
2019-05-25T22:35:44.997Z,99.90
2019-05-25T22:38:14.016Z,99.90
2019-05-25T22:40:43.472Z,99.90
2019-05-25T22:43:12.573Z,99.90
2019-05-25T22:45:41.765Z,99.90
2019-05-25T22:48:10.877Z,99.90
2019-05-25T22:50:39.597Z,99.90
2019-05-25T22:53:08.287Z,99.90
2019-05-25T22:55:37.035Z,99.90
2019-05-25T22:58:05.754Z,99.90
2019-05-25T23:00:34.791Z,99.90
2019-05-25T23:03:03.498Z,99.90
2019-05-25T23:05:32.398Z,99.90
2019-05-25T23:08:01.380Z,99.90
2019-05-25T23:10:30.582Z,99.90
2019-05-25T23:12:59.685Z,99.90
2019-05-25T23:15:29.821Z,99.90
2019-05-25T23:17:58.551Z,99.90
2019-05-25T23:20:27.297Z,99.90
2019-05-25T23:22:56.484Z,99.90
2019-05-25T23:25:25.265Z,99.90
2019-05-25T23:27:53.995Z,99.90
2019-05-25T23:30:23.049Z,99.90
2019-05-25T23:32:52.141Z,99.90
2019-05-25T23:35:21.843Z,99.90
2019-05-25T23:37:50.947Z,99.90
2019-05-25T23:40:20.040Z,99.90
2019-05-25T23:42:49.153Z,99.90
2019-05-25T23:45:35.880Z,99.90
2019-05-25T23:48:04.570Z,99.90
2019-05-25T23:50:33.315Z,99.90
2019-05-25T23:53:02.072Z,99.90
2019-05-25T23:55:30.985Z,99.90
2019-05-25T23:57:59.729Z,99.90
